Airfield :
LOGIN :

Register | Disclaimer

   EN    FR    IT 

 










Legend :    VFR   Marginal VFR   IFR   Intensive IFR   Very Intensive IFR
Visi :
Ceiling :
>= 8 km
>= 3000ft
5 to 8 km
1000 to 3000 ft
1500m to 5 km
500 to 1000 ft
800 to 1500m
200 to 500 ft
< 800m
< 200 ft
Symbols :   Thunderstorms  Fog  Heavy snow  Heavy precipitations  Wind > 20 kt
SIGMETs :     Misc.  Thunderstorms  Icing  Turbulence  Mountain Waves  Volcanic Ashes







- Airport Elevation : 34 ft
- IATA code : BLK
- Download approach charts


EGNH - Blackpool

CURRENT METAR :
  • 251820Z 21013KT 9999 FEW048 14/10 Q1032

EXPIRED METARs :
  • 251750Z 20015KT 9999 FEW046 14/10 Q1031
  • 251720Z 21015KT CAVOK 14/09 Q1031
  • 251650Z 20012KT CAVOK 14/10 Q1031
  • 251620Z 20014KT 9999 FEW038 14/09 Q1032
  • 251550Z 21017KT 9999 FEW036 14/09 Q1032

TAF TAF EGNH
Valid from the 25 at 18:00 until the 25 at 20:00 UTC


251656Z 2518/2520 20012KT 9999 SCT030
ATIS : +44 1253 343 434 (x8315)
No reported NOTAMs for that airfield.
1 SIGMET reported for the London FIR (EGTT) :
 
Severe mountain waves
EGTT SIGMET 01 VALID 251800/252200 EGRR
EGTT LONDON FIR SEV MTW FCST WI N5421 W00004 - N5311 W00204 - N5500 W00356 - N5500 W00100 - N5500 W00021 - N5421 W00004 FL030/200 STNR NC=



MET'MAP, your aeronautical weather chart ! - Copyright ORBIFLY December 2007 - Disclaimer

ORBIFLY MET'MAP TEAM :

Programming & Development : Alexandra Zaïnal
Concept & Development : Baudouin d'Aumeries
Co-Development & Prog : Marc-Olivier Méhu
Technical & hardware support : Manuel Goepfert

Contact : metmap@orbifly.com




SOURCES & CREDITS :

   NOAA